• Join FlightAware (Why Join?)
  • Login
  • US Flag 
05:11PM EDT


 

Airport Tracker/Info


-or-


 

Live Flight TrackerFlight Track Log ✈ GJS3615 ✈ 23-Apr-2013 ✈ KMSN - KORD

Flight Track Log - Related Links

Times and Time Zones

All times are in EDT time to prevent confusion due to time zone crossing. See the GJS3615 flight status page for this flight to view local times or setup timezone preferences in your user account.

Time Position Orientation Groundspeed Altitude Reporting Facility
EDT Latitude Longitude Course Direction KTS MPH feet Rate Location/Type
08:31AM 43.0553 -89.3222 164° South 211 243 4,000  Level Chicago Center
08:32AM 42.9858 -89.2903 161° South 243 280 7,200 2,820 Climbing Chicago Center
08:33AM 42.9144 -89.2614 163° South 266 306 9,900 1,920 Climbing Chicago Center
08:34AM 42.8648 -89.2167 180° South  Level FlightAware Approximate
08:34AM 42.8339 -89.2281 163° South 301 346 11,200  Level Chicago Center
08:35AM 42.7954 -89.2015 164° South  Level FlightAware Approximate
08:35AM 42.7372 -89.1844 162° South 357 411 12,700  Level Chicago Center
08:36AM 42.7272 -89.1742 164° South  Level FlightAware Approximate
08:36AM 42.6367 -89.1414 163° South 376 433 13,000  Level Chicago Center
08:37AM 42.6537 -89.1448 164° South  Level FlightAware Approximate
08:38AM 42.5386 -89.0481 145° Southeast 389 448 13,000  Level Chicago Center
08:39AM 42.4969 -88.9072 112° Southeast 403 464 13,000 -600 Level Chicago Center
08:40AM 42.4558 -88.7681 112° Southeast 400 460 11,800 -1,320 Descending Chicago Center
08:41AM 42.4169 -88.6406 112° Southeast 373 429 10,300 -1,380 Descending Chicago Center
08:42AM 42.3822 -88.5253 112° Southeast 340 391 9,000 -840 Descending Chicago Center
08:43AM 42.3383 -88.4467 127° Southeast 277 319 8,600 -1,020 Descending Chicago Center
08:44AM 42.3314 -88.3369 95° East 262 302 7,000 -780 Descending Chicago Center
08:45AM 42.2983 -88.2864 131° Southeast 211 243 7,000  Level Chicago Center
08:46AM 42.2614 -88.2422 138° Southeast 182 209 7,000 -360 Level Chicago Center
08:47AM 42.2161 -88.1908 140° Southeast 178 205 6,300 -960 Descending Chicago Center
08:48AM 42.1797 -88.1478 139° Southeast 176 203 5,100 -780 Descending Chicago Center
08:49AM 42.1431 -88.1072 141° Southeast 173 199 4,800 -780 Descending Chicago Center
08:50AM 42.1167 -88.0667 131° Southeast 175 201 3,800 -1,380 Descending Chicago TRACON